Down Up Stop Top

TXC259
There are no active watches, warnings or advisories

Record high temperature 111.6°F Record low temperature 13.3°F Record high gust 49.5 mph Record high average 32.4 mph Record daily rain 4.23 in. Record low windchill 4.3°F Record high barometer 30.637 in. Record low barometer 28.496 in.
Daily high pressure 30.076 in. Daily low pressure 29.988 in. Daily low windchill 75.0°F Daily high heat index 85.2°F Daily high gust speed 10.7 mph ESE Daily high average speed 9.0 mph SE
Welfare-Texas Weather
LAST READING AT TIME: 09:35 DATE: July 24 2014, time of next update: 09:40
Current WeatherDry Current Temperature 81.9°F (27.7°C) (Heat Index 79.5°F ), Apparent temp 80.2°F
Maximum Temperature (since midnight)89.1°F at: 00:00 Minimum Temperature (since midnight)75.0°F at: 07:45
Average windspeed (ten minute)0.5 mph Wind Direction (ten minute)NE (47°)
Heat Index 79.5°F Maximum Gust (last hour)3.6 mph at: 08:45
Maximum Gust (since midnight)10.7 mph at: 00:42 Maximum 1 minute average (since midnight)9.0 mph at: 00:42
Rainfall (last hour)0.00 in. (0.0 mm) Rainfall (since midnight)0.00 in. (0.0 mm) ---
Rainfall This month 0.00 in. (0.0 mm) Rainfall To date this year 4.57 in. (116.0 mm)
Maximum rain per minute (last hour)0.00 in/min Maximum rain per hour (last 6 hours)0.00 in/hour
Yesterdays rainfall 0.00 in DewPoint 17.5°F (Wet Bulb :55.5°F )
Humidity 9 %, Humidex 75.2°F Barometer corrected to msl30.076 in. (1018.5 hPa)
Pressure change 0.00 in. (last hour) Trend (last hour)STEADY
Pressure change (last 12 hours)+0.06 in Pressure change (last 6 hours)+0.09 in

This page is updated from recent data collected by a WMR200 weather station Use the Reload or Refresh facility on your browser to retrieve the latest data.


Click here for the last 24 hour graph
Click here for the last 48 hour graph
Click here for the last 72 hour graph
Click here for the month to date graph


Weather report/warning/Metars

SAN ANTONIO INTERNATIONAL  AIRPORT , TX, United States (KSAT) 29-32N 098-28W 243M
Jul 24, 2014 - 09:51 AM EDT / 2014.07.24 1351 UTC
Wind: Calm:0
Visibility: 10 mile(s):0
Sky conditions: overcast
Temperature: 82.0 F (27.8 C)
Dew Point: 70.0 F (21.1 C)
Relative Humidity: 66%
Pressure (altimeter): 30.06 in. Hg (1017 hPa)
ob: KSAT 241351Z 00000KT 10SM BKN100 OVC170 28/21 A3006 RMK AO2 SLP159 T02780211
cycle: 14
NEW BRAUNFELS MUNICIPAL AIRPORT, TX, United States (KBAZ) 29-43N 98-03W 195M
Jul 24, 2014 - 09:51 AM EDT / 2014.07.24 1351 UTC
Wind: from the E (100 degrees) at 5 MPH (4 KT):0
Visibility: 10 mile(s):0
Sky conditions: overcast
Precipitation last hour: A trace
Temperature: 79.0 F (26.1 C)
Dew Point: 73.0 F (22.8 C)
Relative Humidity: 82%
Pressure (altimeter): 30.04 in. Hg (1017 hPa)
ob: KBAZ 241351Z 10004KT 10SM FEW032 SCT070 OVC120 26/23 A3004 RMK AO2 RAE04B39E50 SLP163 P0000 T02610228
cycle: 14
Kerrville, Kerrville Municipal Airport/Louis Schreiner Field, TX, United States (KERV) 29-58N 099-05W
Jul 24, 2014 - 10:15 AM EDT / 2014.07.24 1415 UTC
Wind: Calm:0
Visibility: 10 mile(s):0
Sky conditions: clear
Temperature: 79.0 F (26.1 C)
Dew Point: 70.5 F (21.4 C)
Relative Humidity: 75%
Pressure (altimeter): 30.1 in. Hg (1019 hPa)
ob: KERV 241415Z AUTO 00000KT 10SM CLR 26/21 A3010 RMK AO2 T02610214
cycle: 14
BANGOR INT'L AIRPORT, ME, United States (KBGR) 44-48N 068-49W 57M
Jul 24, 2014 - 09:53 AM EDT / 2014.07.24 1353 UTC
Wind: from the NNE (030 degrees) at 17 MPH (15 KT):0
Visibility: 10 mile(s):0
Sky conditions: mostly cloudy
Temperature: 64.9 F (18.3 C)
Dew Point: 51.1 F (10.6 C)
Relative Humidity: 60%
Pressure (altimeter): 29.84 in. Hg (1010 hPa)
ob: KBGR 241353Z 03015KT 10SM BKN085 BKN150 18/11 A2984 RMK AO2 SLP102 T01830106
cycle: 14



The data is logged at two minute intervals, but there is data recorded every minute.

Use the RELOAD facility on your browser to retrieve the latest data.

Click here for a daily update of the averages/extremes to date for the month


Created by "Weather Display" software version 10.37R Build 23 at this start time/date 06:34 6/14/2014